KSFZ/SFZ METAR and TAF weather

Enter ICAO airport designator
Station Type Date Time Source
KSFZ METAR 2020/01/19 13:56 UTC NOAA

KSFZ 191356Z AUTO VRB04KT 10SM FEW012 02/01 A2962 RMK AO2 SLP982 T00220006 FZRANO


Station Type Date Time Source
KSFZ Decoded METAR 2020/01/19 13:56 UTC NOAA

Pawtucket, North Central State Airport, RI, United States (KSFZ) 41-55N 071-30W
Jan 19, 2020 - 08:56 AM EST / 2020.01.19 1356 UTC
Wind: Variable at 5 MPH (4 KT):0
Visibility: 10 mile(s):0
Sky conditions: mostly clear
Temperature: 36.0 F (2.2 C)
Dew Point: 33.1 F (0.6 C)
Relative Humidity: 89%
Pressure (altimeter): 29.62 in. Hg (1003 hPa)
ob: KSFZ 191356Z AUTO VRB04KT 10SM FEW012 02/01 A2962 RMK AO2 SLP982 T00220006 FZRANO
cycle: 14

Station Type Date Time Source
KSFZ TAF UTC NOAA

Error!

Example: see airport list